sensor_id;sensor_type;location;lat;lon;timestamp;P1;durP1;ratioP1;P2;durP2;ratioP2
15915;SDS011;8057;47.830;-3.870;2023-06-10T11:02:40;2.53;;;1.97;;
15915;SDS011;8057;47.830;-3.870;2023-06-10T11:06:54;5.27;;;2.50;;
15915;SDS011;8057;47.830;-3.870;2023-06-10T11:11:18;3.93;;;2.30;;
15915;SDS011;8057;47.830;-3.870;2023-06-10T11:15:31;4.90;;;2.67;;
15915;SDS011;8057;47.830;-3.870;2023-06-10T11:19:40;2.73;;;1.80;;
15915;SDS011;8057;47.830;-3.870;2023-06-10T11:23:57;3.93;;;2.33;;
15915;SDS011;8057;47.830;-3.870;2023-06-10T11:28:17;3.80;;;1.97;;
15915;SDS011;8057;47.830;-3.870;2023-06-10T11:32:30;3.80;;;2.13;;
15915;SDS011;8057;47.830;-3.870;2023-06-10T11:36:42;5.07;;;2.30;;
15915;SDS011;8057;47.830;-3.870;2023-06-10T11:40:52;3.23;;;1.97;;
15915;SDS011;8057;47.830;-3.870;2023-06-10T11:45:02;2.03;;;1.70;;
15915;SDS011;8057;47.830;-3.870;2023-06-10T11:49:17;4.20;;;1.80;;
15915;SDS011;8057;47.830;-3.870;2023-06-10T11:53:28;5.97;;;1.93;;
15915;SDS011;8057;47.830;-3.870;2023-06-10T11:57:38;4.50;;;2.00;;
15915;SDS011;8057;47.830;-3.870;2023-06-10T12:01:47;4.57;;;1.93;;
15915;SDS011;8057;47.830;-3.870;2023-06-10T12:05:58;5.03;;;2.60;;
15915;SDS011;8057;47.830;-3.870;2023-06-10T12:10:09;2.67;;;2.10;;
15915;SDS011;8057;47.830;-3.870;2023-06-10T12:19:02;2.20;;;2.00;;
15915;SDS011;8057;47.830;-3.870;2023-06-10T12:23:14;3.83;;;1.73;;
15915;SDS011;8057;47.830;-3.870;2023-06-10T12:27:24;3.00;;;2.37;;
15915;SDS011;8057;47.830;-3.870;2023-06-10T12:36:01;3.30;;;1.93;;
15915;SDS011;8057;47.830;-3.870;2023-06-10T12:40:13;6.53;;;2.40;;
15915;SDS011;8057;47.830;-3.870;2023-06-10T12:44:32;3.77;;;2.27;;
15915;SDS011;8057;47.830;-3.870;2023-06-10T12:48:49;4.60;;;2.17;;
15915;SDS011;8057;47.830;-3.870;2023-06-10T12:53:01;3.53;;;2.07;;
15915;SDS011;8057;47.830;-3.870;2023-06-10T12:57:12;4.50;;;2.03;;
15915;SDS011;8057;47.830;-3.870;2023-06-10T13:01:21;2.77;;;1.90;;
15915;SDS011;8057;47.830;-3.870;2023-06-10T13:05:30;4.33;;;2.10;;
15915;SDS011;8057;47.830;-3.870;2023-06-10T13:09:40;4.13;;;2.20;;
15915;SDS011;8057;47.830;-3.870;2023-06-10T13:13:51;4.53;;;2.10;;
15915;SDS011;8057;47.830;-3.870;2023-06-10T13:18:01;3.77;;;2.10;;
15915;SDS011;8057;47.830;-3.870;2023-06-10T13:22:10;8.17;;;2.20;;
15915;SDS011;8057;47.830;-3.870;2023-06-10T13:26:20;3.37;;;2.10;;
15915;SDS011;8057;47.830;-3.870;2023-06-10T13:30:31;3.40;;;2.20;;
15915;SDS011;8057;47.830;-3.870;2023-06-10T13:34:41;3.40;;;1.80;;
15915;SDS011;8057;47.830;-3.870;2023-06-10T13:38:50;5.00;;;2.47;;
15915;SDS011;8057;47.830;-3.870;2023-06-10T13:42:59;6.90;;;2.13;;
15915;SDS011;8057;47.830;-3.870;2023-06-10T13:47:11;3.33;;;1.80;;
15915;SDS011;8057;47.830;-3.870;2023-06-10T13:51:22;3.57;;;2.10;;
15915;SDS011;8057;47.830;-3.870;2023-06-10T13:55:32;4.13;;;2.10;;
15915;SDS011;8057;47.830;-3.870;2023-06-10T13:59:42;2.97;;;1.97;;
15915;SDS011;8057;47.830;-3.870;2023-06-10T14:03:55;6.33;;;2.40;;
15915;SDS011;8057;47.830;-3.870;2023-06-10T14:08:04;4.53;;;2.10;;
15915;SDS011;8057;47.830;-3.870;2023-06-10T14:12:14;5.17;;;2.10;;
15915;SDS011;8057;47.830;-3.870;2023-06-10T14:16:24;4.13;;;2.27;;
15915;SDS011;8057;47.830;-3.870;2023-06-10T14:20:35;6.10;;;2.20;;
15915;SDS011;8057;47.830;-3.870;2023-06-10T14:24:44;3.07;;;1.63;;
15915;SDS011;8057;47.830;-3.870;2023-06-10T14:28:54;4.90;;;2.13;;
15915;SDS011;8057;47.830;-3.870;2023-06-10T14:33:04;3.00;;;2.10;;
15915;SDS011;8057;47.830;-3.870;2023-06-10T14:37:15;5.13;;;2.50;;
15915;SDS011;8057;47.830;-3.870;2023-06-10T14:41:24;3.97;;;1.93;;
15915;SDS011;8057;47.830;-3.870;2023-06-10T14:45:34;4.70;;;2.13;;
15915;SDS011;8057;47.830;-3.870;2023-06-10T14:49:44;5.33;;;2.30;;
15915;SDS011;8057;47.830;-3.870;2023-06-10T14:53:55;3.37;;;1.90;;
15915;SDS011;8057;47.830;-3.870;2023-06-10T14:58:05;4.43;;;2.17;;
15915;SDS011;8057;47.830;-3.870;2023-06-10T15:02:14;4.60;;;2.30;;
15915;SDS011;8057;47.830;-3.870;2023-06-10T15:06:24;6.37;;;2.53;;
15915;SDS011;8057;47.830;-3.870;2023-06-10T15:10:35;4.33;;;2.30;;
15915;SDS011;8057;47.830;-3.870;2023-06-10T15:14:44;4.40;;;2.20;;
15915;SDS011;8057;47.830;-3.870;2023-06-10T15:18:54;7.33;;;2.27;;
15915;SDS011;8057;47.830;-3.870;2023-06-10T15:23:03;4.33;;;2.30;;
15915;SDS011;8057;47.830;-3.870;2023-06-10T15:27:16;2.97;;;2.07;;
15915;SDS011;8057;47.830;-3.870;2023-06-10T15:31:25;4.27;;;2.50;;
15915;SDS011;8057;47.830;-3.870;2023-06-10T15:35:36;4.47;;;2.13;;
15915;SDS011;8057;47.830;-3.870;2023-06-10T15:39:45;4.33;;;2.27;;
15915;SDS011;8057;47.830;-3.870;2023-06-10T15:43:56;5.80;;;2.57;;
15915;SDS011;8057;47.830;-3.870;2023-06-10T15:48:06;5.90;;;2.47;;
15915;SDS011;8057;47.830;-3.870;2023-06-10T15:52:16;5.87;;;2.53;;
15915;SDS011;8057;47.830;-3.870;2023-06-10T15:56:25;5.87;;;2.20;;
15915;SDS011;8057;47.830;-3.870;2023-06-10T16:00:36;4.93;;;2.10;;
15915;SDS011;8057;47.830;-3.870;2023-06-10T16:04:45;5.17;;;2.63;;
15915;SDS011;8057;47.830;-3.870;2023-06-10T16:08:55;5.13;;;2.60;;
15915;SDS011;8057;47.830;-3.870;2023-06-10T16:13:04;7.37;;;2.67;;
15915;SDS011;8057;47.830;-3.870;2023-06-10T16:17:15;6.37;;;2.57;;
15915;SDS011;8057;47.830;-3.870;2023-06-10T16:21:24;6.80;;;2.50;;
15915;SDS011;8057;47.830;-3.870;2023-06-10T16:25:34;5.93;;;2.40;;
15915;SDS011;8057;47.830;-3.870;2023-06-10T16:29:46;5.70;;;2.43;;
15915;SDS011;8057;47.830;-3.870;2023-06-10T16:33:56;5.67;;;2.40;;
15915;SDS011;8057;47.830;-3.870;2023-06-10T16:38:05;3.43;;;2.00;;
15915;SDS011;8057;47.830;-3.870;2023-06-10T16:42:15;6.87;;;2.50;;
15915;SDS011;8057;47.830;-3.870;2023-06-10T16:46:24;7.83;;;3.17;;
15915;SDS011;8057;47.830;-3.870;2023-06-10T16:50:37;6.33;;;2.67;;
15915;SDS011;8057;47.830;-3.870;2023-06-10T16:54:46;5.20;;;2.80;;
15915;SDS011;8057;47.830;-3.870;2023-06-10T16:58:59;6.50;;;2.40;;
15915;SDS011;8057;47.830;-3.870;2023-06-10T17:03:11;5.33;;;2.97;;
15915;SDS011;8057;47.830;-3.870;2023-06-10T17:17:15;7.97;;;3.20;;
15915;SDS011;8057;47.830;-3.870;2023-06-10T17:21:43;4.53;;;2.83;;
15915;SDS011;8057;47.830;-3.870;2023-06-10T17:25:55;5.63;;;3.00;;
15915;SDS011;8057;47.830;-3.870;2023-06-10T18:23:29;7.20;;;3.03;;
15915;SDS011;8057;47.830;-3.870;2023-06-10T18:27:39;5.60;;;2.73;;
15915;SDS011;8057;47.830;-3.870;2023-06-10T18:32:16;6.37;;;2.83;;
15915;SDS011;8057;47.830;-3.870;2023-06-10T18:37:05;4.33;;;2.03;;
15915;SDS011;8057;47.830;-3.870;2023-06-10T18:41:32;5.37;;;2.97;;
15915;SDS011;8057;47.830;-3.870;2023-06-10T18:46:14;4.93;;;2.60;;
15915;SDS011;8057;47.830;-3.870;2023-06-10T18:50:25;6.03;;;2.83;;
15915;SDS011;8057;47.830;-3.870;2023-06-10T19:52:49;6.30;;;3.00;;
15915;SDS011;8057;47.830;-3.870;2023-06-10T19:57:14;8.87;;;3.43;;
15915;SDS011;8057;47.830;-3.870;2023-06-10T20:01:54;4.00;;;2.70;;
15915;SDS011;8057;47.830;-3.870;2023-06-10T20:06:39;6.07;;;2.80;;
15915;SDS011;8057;47.830;-3.870;2023-06-10T20:16:27;4.03;;;3.20;;
15915;SDS011;8057;47.830;-3.870;2023-06-10T20:20:57;5.90;;;3.40;;
15915;SDS011;8057;47.830;-3.870;2023-06-10T20:25:37;6.40;;;3.50;;
15915;SDS011;8057;47.830;-3.870;2023-06-10T20:29:52;7.43;;;3.07;;
15915;SDS011;8057;47.830;-3.870;2023-06-10T20:39:25;7.73;;;4.27;;
15915;SDS011;8057;47.830;-3.870;2023-06-10T20:44:04;4.63;;;3.47;;
15915;SDS011;8057;47.830;-3.870;2023-06-10T20:48:33;5.77;;;3.50;;
15915;SDS011;8057;47.830;-3.870;2023-06-10T20:53:10;8.73;;;4.03;;
15915;SDS011;8057;47.830;-3.870;2023-06-10T20:57:20;4.60;;;3.80;;
15915;SDS011;8057;47.830;-3.870;2023-06-10T21:01:45;5.40;;;3.67;;
15915;SDS011;8057;47.830;-3.870;2023-06-10T21:06:26;7.00;;;3.57;;
15915;SDS011;8057;47.830;-3.870;2023-06-10T21:10:39;7.80;;;3.83;;
15915;SDS011;8057;47.830;-3.870;2023-06-10T21:14:51;5.73;;;3.33;;
15915;SDS011;8057;47.830;-3.870;2023-06-10T21:19:02;8.13;;;4.07;;
15915;SDS011;8057;47.830;-3.870;2023-06-10T21:23:31;7.70;;;3.87;;
15915;SDS011;8057;47.830;-3.870;2023-06-10T21:27:58;9.53;;;4.13;;
15915;SDS011;8057;47.830;-3.870;2023-06-10T21:32:16;8.77;;;4.30;;
15915;SDS011;8057;47.830;-3.870;2023-06-10T21:36:51;5.20;;;3.67;;
15915;SDS011;8057;47.830;-3.870;2023-06-10T21:41:02;6.40;;;4.20;;
15915;SDS011;8057;47.830;-3.870;2023-06-10T21:49:53;6.20;;;3.57;;
15915;SDS011;8057;47.830;-3.870;2023-06-10T21:54:16;5.67;;;3.37;;
15915;SDS011;8057;47.830;-3.870;2023-06-10T21:58:40;6.93;;;3.90;;
15915;SDS011;8057;47.830;-3.870;2023-06-10T22:02:57;7.63;;;3.87;;
15915;SDS011;8057;47.830;-3.870;2023-06-10T22:07:39;5.70;;;3.67;;
15915;SDS011;8057;47.830;-3.870;2023-06-10T22:11:54;5.87;;;4.07;;
15915;SDS011;8057;47.830;-3.870;2023-06-10T22:16:32;5.27;;;3.93;;
15915;SDS011;8057;47.830;-3.870;2023-06-10T22:20:47;7.53;;;3.83;;
15915;SDS011;8057;47.830;-3.870;2023-06-10T22:25:07;4.97;;;3.77;;
15915;SDS011;8057;47.830;-3.870;2023-06-10T22:29:31;4.93;;;3.70;;
15915;SDS011;8057;47.830;-3.870;2023-06-10T22:34:10;8.80;;;4.60;;
15915;SDS011;8057;47.830;-3.870;2023-06-10T22:39:10;6.97;;;4.07;;
15915;SDS011;8057;47.830;-3.870;2023-06-10T22:43:47;7.10;;;3.83;;
15915;SDS011;8057;47.830;-3.870;2023-06-10T22:47:59;7.60;;;4.20;;
15915;SDS011;8057;47.830;-3.870;2023-06-10T22:52:25;7.30;;;3.67;;
15915;SDS011;8057;47.830;-3.870;2023-06-10T22:56:39;5.93;;;4.00;;
15915;SDS011;8057;47.830;-3.870;2023-06-10T23:00:48;6.17;;;4.03;;
15915;SDS011;8057;47.830;-3.870;2023-06-10T23:04:57;6.23;;;4.07;;
15915;SDS011;8057;47.830;-3.870;2023-06-10T23:09:07;6.97;;;4.13;;
15915;SDS011;8057;47.830;-3.870;2023-06-10T23:13:20;6.27;;;3.77;;
15915;SDS011;8057;47.830;-3.870;2023-06-10T23:17:29;6.83;;;4.23;;
15915;SDS011;8057;47.830;-3.870;2023-06-10T23:21:38;6.73;;;3.77;;
15915;SDS011;8057;47.830;-3.870;2023-06-10T23:25:55;5.77;;;4.10;;
15915;SDS011;8057;47.830;-3.870;2023-06-10T23:30:07;7.60;;;4.47;;
15915;SDS011;8057;47.830;-3.870;2023-06-10T23:34:17;5.43;;;4.10;;
15915;SDS011;8057;47.830;-3.870;2023-06-10T23:38:27;9.10;;;5.13;;
15915;SDS011;8057;47.830;-3.870;2023-06-10T23:42:36;5.50;;;4.37;;
15915;SDS011;8057;47.830;-3.870;2023-06-10T23:46:47;5.37;;;3.87;;
15915;SDS011;8057;47.830;-3.870;2023-06-10T23:50:56;7.07;;;4.50;;
15915;SDS011;8057;47.830;-3.870;2023-06-10T23:55:07;8.37;;;4.87;;
15915;SDS011;8057;47.830;-3.870;2023-06-10T23:59:17;6.13;;;4.40;;
